createdAt,value
2022-12-03T00:01:14.502Z,16.90
2022-12-03T00:03:41.220Z,16.90
2022-12-03T00:06:07.987Z,16.89
2022-12-03T00:08:34.595Z,16.89
2022-12-03T00:11:01.311Z,16.88
2022-12-03T00:13:27.881Z,16.88
2022-12-03T00:15:54.538Z,16.86
2022-12-03T00:18:21.157Z,16.86
2022-12-03T00:20:47.759Z,16.86
2022-12-03T00:23:14.346Z,16.86
2022-12-03T00:25:40.943Z,16.87
2022-12-03T00:28:07.691Z,16.88
2022-12-03T00:30:34.358Z,16.90
2022-12-03T00:33:01.042Z,16.91
2022-12-03T00:35:27.640Z,16.94
2022-12-03T00:37:54.915Z,16.96
2022-12-03T00:40:21.530Z,16.96
2022-12-03T00:42:48.090Z,16.98
2022-12-03T00:45:14.685Z,16.99
2022-12-03T00:47:41.282Z,16.99
2022-12-03T00:50:08.325Z,17.01
2022-12-03T00:52:34.957Z,17.02
2022-12-03T00:55:01.533Z,16.99
2022-12-03T00:57:28.118Z,17.01
2022-12-03T00:59:54.714Z,17.00
2022-12-03T01:02:21.503Z,17.01
2022-12-03T01:04:48.379Z,17.01
2022-12-03T01:07:15.043Z,17.00
2022-12-03T01:09:41.593Z,17.00
2022-12-03T01:12:08.231Z,16.97
2022-12-03T01:14:34.803Z,16.99
2022-12-03T01:17:01.542Z,16.99
2022-12-03T01:19:28.212Z,16.98
2022-12-03T01:21:55.615Z,17.01
2022-12-03T01:24:22.576Z,17.00
2022-12-03T01:26:49.174Z,16.99
2022-12-03T01:29:15.885Z,17.02
2022-12-03T01:32:01.228Z,17.00
2022-12-03T01:34:27.926Z,16.99
2022-12-03T01:36:54.642Z,17.00
2022-12-03T01:39:21.269Z,16.99
2022-12-03T01:41:49.092Z,16.98
2022-12-03T01:44:26.125Z,16.99
2022-12-03T01:46:54.997Z,16.98
2022-12-03T01:49:30.761Z,16.97
2022-12-03T01:51:57.759Z,16.97
2022-12-03T01:54:51.035Z,16.97
2022-12-03T01:57:25.502Z,16.99
2022-12-03T01:59:53.226Z,17.01
2022-12-03T02:02:24.126Z,17.04
2022-12-03T02:04:52.082Z,17.04
2022-12-03T02:07:27.986Z,17.07
2022-12-03T02:09:57.312Z,17.07
2022-12-03T02:12:32.172Z,17.08
2022-12-03T02:14:59.039Z,17.07
2022-12-03T02:17:26.087Z,17.09
2022-12-03T02:19:53.130Z,17.10
2022-12-03T02:22:35.053Z,17.11
2022-12-03T02:25:17.628Z,17.10
2022-12-03T02:27:44.623Z,17.10
2022-12-03T02:30:12.869Z,17.12
2022-12-03T02:32:40.139Z,17.11
2022-12-03T02:35:08.850Z,17.13
2022-12-03T02:37:36.791Z,17.12
2022-12-03T02:40:06.851Z,17.11
2022-12-03T02:42:36.483Z,17.12
2022-12-03T02:45:10.759Z,17.11
2022-12-03T02:47:53.059Z,17.10
2022-12-03T02:50:23.372Z,17.10
2022-12-03T02:52:52.804Z,17.09
2022-12-03T02:55:19.688Z,17.09
2022-12-03T02:57:48.561Z,17.07
2022-12-03T03:00:16.287Z,17.08
2022-12-03T03:02:43.627Z,17.09
2022-12-03T03:05:11.931Z,17.08
2022-12-03T03:07:39.144Z,17.08
2022-12-03T03:10:07.377Z,17.08
2022-12-03T03:12:39.024Z,17.09
2022-12-03T03:15:07.391Z,17.07
2022-12-03T03:17:35.320Z,17.09
2022-12-03T03:20:03.313Z,17.09
2022-12-03T03:22:41.436Z,17.08
2022-12-03T03:25:11.122Z,17.09
2022-12-03T03:27:38.449Z,17.09
2022-12-03T03:30:05.705Z,17.09
2022-12-03T03:32:33.017Z,17.11
2022-12-03T03:34:59.608Z,17.13
2022-12-03T03:37:26.499Z,17.13
2022-12-03T03:39:53.104Z,17.15
2022-12-03T03:42:19.799Z,17.16
2022-12-03T03:44:48.075Z,17.17
2022-12-03T03:47:14.989Z,17.17
2022-12-03T03:49:41.935Z,17.19
2022-12-03T03:52:11.555Z,17.19
2022-12-03T03:54:38.649Z,17.19
2022-12-03T03:57:05.431Z,17.19
2022-12-03T03:59:32.058Z,17.19
2022-12-03T04:01:58.694Z,17.19
2022-12-03T04:04:26.833Z,17.19
2022-12-03T04:06:53.501Z,17.20
2022-12-03T04:09:20.129Z,17.19
2022-12-03T04:12:05.215Z,17.20
2022-12-03T04:14:31.823Z,17.19
2022-12-03T04:16:58.450Z,17.17
2022-12-03T04:19:25.057Z,17.18
2022-12-03T04:22:10.556Z,17.17
2022-12-03T04:24:37.131Z,17.17
2022-12-03T04:27:22.251Z,17.17
2022-12-03T04:29:48.985Z,17.17
2022-12-03T04:32:34.370Z,17.16
2022-12-03T04:35:19.465Z,17.15
2022-12-03T04:37:46.128Z,17.15
2022-12-03T04:40:31.500Z,17.16
2022-12-03T04:42:58.071Z,17.15
2022-12-03T04:45:24.599Z,17.15
2022-12-03T04:47:51.215Z,17.16
2022-12-03T04:50:17.789Z,17.14
2022-12-03T04:52:44.338Z,17.16
2022-12-03T04:55:10.990Z,17.16
2022-12-03T04:57:37.583Z,17.16
2022-12-03T05:00:05.335Z,17.18
2022-12-03T05:02:31.981Z,17.20
2022-12-03T05:04:58.576Z,17.21
2022-12-03T05:07:25.228Z,17.22
2022-12-03T05:09:51.922Z,17.22
2022-12-03T05:12:18.492Z,17.24
2022-12-03T05:14:45.054Z,17.24
2022-12-03T05:17:11.653Z,17.25
2022-12-03T05:19:56.838Z,17.27
2022-12-03T05:22:23.479Z,17.28
2022-12-03T05:24:50.065Z,17.27
2022-12-03T05:27:20.287Z,17.28
2022-12-03T05:29:50.210Z,17.28
2022-12-03T05:32:16.792Z,17.29
2022-12-03T05:34:43.383Z,17.28
2022-12-03T05:37:10.005Z,17.29
2022-12-03T05:39:36.830Z,17.26
2022-12-03T05:42:22.361Z,17.26
2022-12-03T05:44:48.922Z,17.24
2022-12-03T05:47:15.501Z,17.26
2022-12-03T05:49:42.146Z,17.25
2022-12-03T05:52:08.770Z,17.23
2022-12-03T05:54:35.361Z,17.22
2022-12-03T05:57:01.927Z,17.23
2022-12-03T05:59:28.499Z,17.23
2022-12-03T06:01:55.376Z,17.22
2022-12-03T06:04:21.938Z,17.21
2022-12-03T06:06:48.509Z,17.21
2022-12-03T06:09:15.050Z,17.20
2022-12-03T06:11:41.635Z,17.21
2022-12-03T06:14:08.566Z,17.21
2022-12-03T06:16:35.204Z,17.21
2022-12-03T06:19:01.791Z,17.22
2022-12-03T06:21:28.345Z,17.24
2022-12-03T06:23:55.002Z,17.22
2022-12-03T06:26:21.776Z,17.26
2022-12-03T06:28:49.508Z,17.26
2022-12-03T06:31:16.157Z,17.27
2022-12-03T06:33:42.736Z,17.29
2022-12-03T06:36:09.324Z,17.29
2022-12-03T06:38:35.907Z,17.33
2022-12-03T06:41:02.480Z,17.33
2022-12-03T06:43:30.915Z,17.35
2022-12-03T06:45:57.490Z,17.35
2022-12-03T06:48:24.065Z,17.36
2022-12-03T06:50:50.617Z,17.37
2022-12-03T06:53:17.163Z,17.35
2022-12-03T06:55:43.955Z,17.36
2022-12-03T06:58:10.560Z,17.36
2022-12-03T07:00:37.168Z,17.35
2022-12-03T07:03:03.849Z,17.35
2022-12-03T07:05:30.526Z,17.34
2022-12-03T07:07:57.302Z,17.33
2022-12-03T07:10:23.960Z,17.32
2022-12-03T07:12:50.541Z,17.31
2022-12-03T07:15:17.289Z,17.31
2022-12-03T07:17:43.875Z,17.31
2022-12-03T07:20:11.172Z,17.30
2022-12-03T07:22:37.753Z,17.31
2022-12-03T07:25:05.012Z,17.28
2022-12-03T07:27:31.698Z,17.29
2022-12-03T07:29:58.300Z,17.30
2022-12-03T07:32:24.850Z,17.29
2022-12-03T07:34:51.721Z,17.29
2022-12-03T07:37:22.887Z,17.28
2022-12-03T07:39:50.240Z,17.29
2022-12-03T07:42:16.849Z,17.30
2022-12-03T07:44:43.399Z,17.30
2022-12-03T07:47:10.084Z,17.29
2022-12-03T07:49:36.792Z,17.29
2022-12-03T07:52:03.371Z,17.30
2022-12-03T07:54:29.931Z,17.30
2022-12-03T07:57:01.117Z,17.31
2022-12-03T07:59:28.646Z,17.31
2022-12-03T08:01:55.421Z,17.30
2022-12-03T08:04:22.041Z,17.33
2022-12-03T08:06:48.622Z,17.36
2022-12-03T08:09:16.427Z,17.38
2022-12-03T08:11:45.149Z,17.40
2022-12-03T08:14:13.640Z,17.42
2022-12-03T08:16:41.887Z,17.45
2022-12-03T08:19:12.950Z,17.44
2022-12-03T08:21:40.092Z,17.43
2022-12-03T08:24:24.782Z,17.44
2022-12-03T08:26:51.646Z,17.46
2022-12-03T08:29:19.945Z,17.44
2022-12-03T08:31:57.509Z,17.44
2022-12-03T08:34:27.171Z,17.43
2022-12-03T08:37:01.879Z,17.42
2022-12-03T08:39:37.872Z,17.42
2022-12-03T08:42:22.852Z,17.39
2022-12-03T08:44:49.433Z,17.41
2022-12-03T08:47:19.962Z,17.41
2022-12-03T08:50:22.366Z,17.41
2022-12-03T08:52:48.940Z,17.40
2022-12-03T08:55:38.059Z,17.38
2022-12-03T08:58:39.232Z,17.38
2022-12-03T09:01:08.869Z,17.39
2022-12-03T09:03:35.573Z,17.39
2022-12-03T09:06:02.152Z,17.39
2022-12-03T09:08:28.786Z,17.39
2022-12-03T09:10:55.527Z,17.38
2022-12-03T09:13:22.205Z,17.39
2022-12-03T09:15:48.779Z,17.39
2022-12-03T09:18:15.900Z,17.35
2022-12-03T09:20:42.527Z,17.32
2022-12-03T09:23:09.086Z,17.29
2022-12-03T09:25:35.788Z,17.27
2022-12-03T09:28:02.855Z,17.25
2022-12-03T09:30:29.418Z,17.25
2022-12-03T09:32:56.062Z,17.27
2022-12-03T09:35:23.088Z,17.27
2022-12-03T09:37:49.660Z,17.29
2022-12-03T09:40:16.253Z,17.30
2022-12-03T09:42:42.835Z,17.34
2022-12-03T09:45:12.254Z,17.39
2022-12-03T09:47:40.518Z,17.40
2022-12-03T09:50:07.669Z,17.42
2022-12-03T09:52:34.649Z,17.44
2022-12-03T09:55:04.652Z,17.46
2022-12-03T09:57:31.409Z,17.46
2022-12-03T09:59:58.139Z,17.48
2022-12-03T10:02:29.787Z,17.47
2022-12-03T10:04:57.080Z,17.47
2022-12-03T10:07:25.161Z,17.35
2022-12-03T10:09:52.225Z,17.35
2022-12-03T10:12:23.814Z,17.39
2022-12-03T10:14:50.521Z,17.41
2022-12-03T10:17:17.207Z,17.41
2022-12-03T10:19:44.687Z,17.41
2022-12-03T10:22:11.238Z,17.41
2022-12-03T10:24:38.269Z,17.42
2022-12-03T10:27:29.556Z,17.42
2022-12-03T10:29:58.310Z,17.42
2022-12-03T10:32:43.621Z,17.42
2022-12-03T10:35:11.909Z,17.43
2022-12-03T10:37:56.656Z,17.42
2022-12-03T10:40:31.857Z,17.41
2022-12-03T10:43:14.704Z,17.40
2022-12-03T10:45:42.746Z,17.41
2022-12-03T10:48:20.420Z,17.42
2022-12-03T10:50:52.289Z,17.41
2022-12-03T10:53:20.509Z,17.40
2022-12-03T10:55:48.571Z,17.41
2022-12-03T10:58:20.269Z,17.39
2022-12-03T11:00:47.130Z,17.37
2022-12-03T11:03:22.450Z,17.39
2022-12-03T11:05:50.267Z,17.38
2022-12-03T11:08:21.659Z,17.39
2022-12-03T11:11:07.136Z,17.41
2022-12-03T11:13:33.634Z,17.44
2022-12-03T11:16:04.866Z,17.47
2022-12-03T11:18:37.268Z,17.48
2022-12-03T11:21:06.816Z,17.51
2022-12-03T11:23:45.575Z,17.52
2022-12-03T11:26:18.900Z,17.54
2022-12-03T11:28:46.211Z,17.56
2022-12-03T11:31:31.450Z,17.58
2022-12-03T11:34:19.748Z,17.59
2022-12-03T11:37:11.042Z,17.59
2022-12-03T11:39:49.573Z,17.58
2022-12-03T11:42:27.721Z,17.56
2022-12-03T11:45:06.200Z,17.56
2022-12-03T11:47:40.698Z,17.54
2022-12-03T11:50:22.445Z,17.51
2022-12-03T11:52:55.009Z,17.49
2022-12-03T11:55:34.730Z,17.48
2022-12-03T11:58:15.157Z,17.48
2022-12-03T12:00:51.868Z,17.48
2022-12-03T12:03:42.885Z,17.47
2022-12-03T12:06:11.908Z,17.48
2022-12-03T12:08:41.156Z,17.46
2022-12-03T12:11:26.347Z,17.47
2022-12-03T12:14:12.891Z,17.46
2022-12-03T12:16:50.771Z,17.46
2022-12-03T12:19:37.465Z,17.45
2022-12-03T12:22:17.214Z,17.45
2022-12-03T12:24:46.357Z,17.42
2022-12-03T12:27:37.737Z,17.43
2022-12-03T12:30:13.676Z,17.44
2022-12-03T12:32:47.356Z,17.44
2022-12-03T12:35:15.980Z,17.41
2022-12-03T12:38:08.678Z,17.42
2022-12-03T12:40:36.291Z,17.42
2022-12-03T12:43:13.497Z,17.42
2022-12-03T12:45:43.532Z,17.41
2022-12-03T12:48:10.118Z,17.41
2022-12-03T12:50:37.761Z,17.42
2022-12-03T12:53:16.180Z,17.42
2022-12-03T12:55:42.766Z,17.45
2022-12-03T12:58:15.977Z,17.47
2022-12-03T13:00:42.774Z,17.50
2022-12-03T13:03:11.849Z,17.53
2022-12-03T13:05:43.659Z,17.55
2022-12-03T13:08:28.591Z,17.58
2022-12-03T13:10:57.867Z,17.58
2022-12-03T13:13:44.712Z,17.60
2022-12-03T13:16:32.104Z,17.61
2022-12-03T13:18:59.991Z,17.63
2022-12-03T13:21:40.512Z,17.61
2022-12-03T13:24:27.123Z,17.62
2022-12-03T13:26:53.695Z,17.60
2022-12-03T13:29:21.011Z,17.59
2022-12-03T13:31:59.402Z,17.57
2022-12-03T13:34:33.812Z,17.55
2022-12-03T13:37:09.173Z,17.53
2022-12-03T13:39:37.817Z,17.53
2022-12-03T13:42:38.842Z,17.50
2022-12-03T13:45:14.920Z,17.52
2022-12-03T13:47:42.708Z,17.52
2022-12-03T13:50:23.949Z,17.52
2022-12-03T13:52:51.658Z,17.52
2022-12-03T13:55:28.430Z,17.51
2022-12-03T13:57:55.064Z,17.52
2022-12-03T14:00:21.878Z,17.52
2022-12-03T14:02:48.588Z,17.52
2022-12-03T14:05:15.495Z,17.49
2022-12-03T14:07:42.631Z,17.52
2022-12-03T14:10:11.707Z,17.52
2022-12-03T14:12:38.371Z,17.50
2022-12-03T14:15:06.276Z,17.50
2022-12-03T14:17:32.925Z,17.49
2022-12-03T14:20:01.399Z,17.49
2022-12-03T14:22:28.419Z,17.49
2022-12-03T14:24:55.012Z,17.49
2022-12-03T14:27:21.944Z,17.50
2022-12-03T14:29:48.482Z,17.51
2022-12-03T14:32:15.083Z,17.50
2022-12-03T14:34:41.688Z,17.51
2022-12-03T14:37:08.255Z,17.52
2022-12-03T14:39:34.868Z,17.53
2022-12-03T14:42:13.606Z,17.55
2022-12-03T14:44:45.441Z,17.58
2022-12-03T14:47:12.641Z,17.60
2022-12-03T14:49:39.589Z,17.61
2022-12-03T14:52:09.927Z,17.64
2022-12-03T14:54:42.890Z,17.65
2022-12-03T14:57:11.586Z,17.64
2022-12-03T14:59:39.038Z,17.64
2022-12-03T15:02:05.743Z,17.64
2022-12-03T15:04:32.348Z,17.64
2022-12-03T15:06:58.942Z,17.64
2022-12-03T15:09:25.619Z,17.64
2022-12-03T15:11:52.205Z,17.62
2022-12-03T15:14:18.733Z,17.63
2022-12-03T15:16:45.410Z,17.62
2022-12-03T15:19:12.032Z,17.62
2022-12-03T15:21:38.559Z,17.61
2022-12-03T15:24:05.366Z,17.60
2022-12-03T15:26:32.119Z,17.60
2022-12-03T15:28:58.763Z,17.60
2022-12-03T15:31:25.495Z,17.60
2022-12-03T15:33:52.093Z,17.59
2022-12-03T15:36:18.674Z,17.59
2022-12-03T15:38:45.249Z,17.60
2022-12-03T15:41:21.477Z,17.60
2022-12-03T15:43:49.004Z,17.59
2022-12-03T15:46:15.700Z,17.59
2022-12-03T15:48:42.319Z,17.60
2022-12-03T15:51:08.922Z,17.58
2022-12-03T15:53:35.508Z,17.59
2022-12-03T15:56:02.101Z,17.58
2022-12-03T15:58:28.749Z,17.58
2022-12-03T16:00:55.691Z,17.57
2022-12-03T16:03:22.390Z,17.56
2022-12-03T16:05:49.049Z,17.57
2022-12-03T16:08:15.650Z,17.57
2022-12-03T16:10:42.329Z,17.58
2022-12-03T16:13:08.897Z,17.57
2022-12-03T16:15:35.739Z,17.58
2022-12-03T16:18:02.385Z,17.57
2022-12-03T16:20:28.975Z,17.56
2022-12-03T16:22:55.522Z,17.58
2022-12-03T16:25:22.118Z,17.57
2022-12-03T16:27:48.866Z,17.58
2022-12-03T16:30:15.666Z,17.60
2022-12-03T16:32:42.285Z,17.61
2022-12-03T16:35:08.951Z,17.64
2022-12-03T16:37:35.601Z,17.64
2022-12-03T16:40:02.816Z,17.64
2022-12-03T16:42:29.463Z,17.66
2022-12-03T16:45:04.912Z,17.65
2022-12-03T16:47:34.153Z,17.66
2022-12-03T16:50:02.017Z,17.65
2022-12-03T16:52:28.665Z,17.67
2022-12-03T16:54:55.237Z,17.68
2022-12-03T16:57:21.851Z,17.67
2022-12-03T16:59:48.446Z,17.66
2022-12-03T17:02:15.148Z,17.66
2022-12-03T17:04:41.753Z,17.66
2022-12-03T17:07:08.332Z,17.65
2022-12-03T17:09:34.909Z,17.65
2022-12-03T17:12:01.474Z,17.64
2022-12-03T17:14:33.034Z,17.64
2022-12-03T17:17:00.114Z,17.65
2022-12-03T17:19:26.735Z,17.63
2022-12-03T17:21:54.206Z,17.64
2022-12-03T17:24:21.460Z,17.64
2022-12-03T17:26:48.112Z,17.65
2022-12-03T17:29:14.646Z,17.62
2022-12-03T17:31:42.467Z,17.63
2022-12-03T17:34:09.468Z,17.64
2022-12-03T17:36:36.036Z,17.63
2022-12-03T17:39:02.751Z,17.63
2022-12-03T17:41:29.386Z,17.64
2022-12-03T17:43:55.930Z,17.64
2022-12-03T17:46:22.797Z,17.64
2022-12-03T17:48:49.609Z,17.64
2022-12-03T17:51:16.246Z,17.63
2022-12-03T17:53:42.801Z,17.64
2022-12-03T17:56:09.638Z,17.64
2022-12-03T17:58:36.212Z,17.64
2022-12-03T18:01:03.448Z,17.63
2022-12-03T18:03:30.838Z,17.62
2022-12-03T18:05:57.445Z,17.63
2022-12-03T18:08:24.068Z,17.66
2022-12-03T18:10:50.674Z,17.66
2022-12-03T18:13:17.316Z,17.67
2022-12-03T18:15:43.976Z,17.68
2022-12-03T18:18:10.715Z,17.69
2022-12-03T18:20:37.644Z,17.70
2022-12-03T18:23:04.858Z,17.71
2022-12-03T18:25:31.500Z,17.73
2022-12-03T18:27:58.226Z,17.73
2022-12-03T18:30:24.934Z,17.74
2022-12-03T18:32:51.499Z,17.75
2022-12-03T18:35:18.187Z,17.74
2022-12-03T18:37:44.884Z,17.75
2022-12-03T18:40:20.165Z,17.75
2022-12-03T18:42:47.068Z,17.75
2022-12-03T18:45:14.942Z,17.75
2022-12-03T18:47:41.767Z,17.74
2022-12-03T18:50:09.647Z,17.74
2022-12-03T18:52:36.255Z,17.74
2022-12-03T18:55:03.027Z,17.74
2022-12-03T18:57:29.593Z,17.74
2022-12-03T18:59:56.378Z,17.72
2022-12-03T19:05:10.029Z,17.73
2022-12-03T19:07:36.825Z,17.72
2022-12-03T19:10:04.035Z,17.72
2022-12-03T19:12:31.192Z,17.73
2022-12-03T19:14:57.811Z,17.73
2022-12-03T19:17:24.444Z,17.73
2022-12-03T19:19:51.122Z,17.74
2022-12-03T19:22:17.740Z,17.73
2022-12-03T19:24:44.307Z,17.74
2022-12-03T19:27:10.952Z,17.72
2022-12-03T19:29:37.513Z,17.74
2022-12-03T19:32:04.199Z,17.73
2022-12-03T19:34:30.857Z,17.72
2022-12-03T19:36:57.402Z,17.73
2022-12-03T19:39:24.217Z,17.72
2022-12-03T19:41:50.910Z,17.71
2022-12-03T19:44:18.517Z,17.70
2022-12-03T19:46:45.654Z,17.71
2022-12-03T19:49:12.353Z,17.71
2022-12-03T19:51:38.928Z,17.72
2022-12-03T19:54:07.388Z,17.72
2022-12-03T19:56:34.480Z,17.74
2022-12-03T19:59:01.055Z,17.77
2022-12-03T20:01:29.954Z,17.79
2022-12-03T20:03:57.961Z,17.80
2022-12-03T20:06:26.795Z,17.82
2022-12-03T20:08:58.690Z,17.84
2022-12-03T20:11:28.764Z,17.85
2022-12-03T20:13:57.131Z,17.86
2022-12-03T20:16:24.607Z,17.85
2022-12-03T20:18:51.756Z,17.86
2022-12-03T20:21:19.376Z,17.84
2022-12-03T20:23:46.447Z,17.86
2022-12-03T20:26:18.584Z,17.85
2022-12-03T20:28:46.070Z,17.85
2022-12-03T20:31:15.450Z,17.86
2022-12-03T20:33:48.116Z,17.86
2022-12-03T20:36:16.268Z,17.85
2022-12-03T20:38:43.346Z,17.85
2022-12-03T20:41:15.148Z,17.85
2022-12-03T20:43:41.841Z,17.85
2022-12-03T20:46:10.960Z,17.85
2022-12-03T20:48:37.758Z,17.86
2022-12-03T20:51:15.419Z,17.88
2022-12-03T20:53:42.455Z,17.87
2022-12-03T20:56:09.718Z,17.88
2022-12-03T20:58:36.635Z,17.87
2022-12-03T21:01:15.438Z,17.86
2022-12-03T21:03:42.727Z,17.87
2022-12-03T21:06:10.300Z,17.86
2022-12-03T21:08:41.547Z,17.86
2022-12-03T21:11:14.155Z,17.87
2022-12-03T21:13:44.023Z,17.85
2022-12-03T21:16:16.053Z,17.84
2022-12-03T21:18:43.027Z,17.85
2022-12-03T21:21:11.846Z,17.83
2022-12-03T21:23:38.426Z,17.84
2022-12-03T21:26:13.526Z,17.83
2022-12-03T21:28:41.149Z,17.82
2022-12-03T21:31:10.972Z,17.83
2022-12-03T21:33:38.319Z,17.82
2022-12-03T21:36:05.876Z,17.84
2022-12-03T21:38:32.799Z,17.83
2022-12-03T21:41:00.045Z,17.85
2022-12-03T21:43:27.139Z,17.88
2022-12-03T21:45:53.987Z,17.90
2022-12-03T21:48:21.176Z,17.92
2022-12-03T21:51:01.770Z,17.93
2022-12-03T21:53:29.027Z,17.95
2022-12-03T21:55:55.853Z,17.95
2022-12-03T21:58:22.546Z,17.98
2022-12-03T22:00:49.165Z,17.98
2022-12-03T22:03:15.823Z,17.99
2022-12-03T22:05:42.582Z,18.00
2022-12-03T22:08:09.440Z,17.99
2022-12-03T22:10:36.470Z,18.00
2022-12-03T22:13:03.054Z,18.01
2022-12-03T22:15:29.603Z,17.99
2022-12-03T22:17:56.143Z,18.00
2022-12-03T22:20:22.680Z,18.02
2022-12-03T22:22:49.208Z,18.02
2022-12-03T22:25:15.858Z,18.02
2022-12-03T22:27:42.459Z,18.02
2022-12-03T22:30:09.250Z,18.01
2022-12-03T22:32:35.911Z,18.03
2022-12-03T22:35:02.604Z,18.02
2022-12-03T22:37:29.186Z,18.00
2022-12-03T22:39:55.967Z,18.00
2022-12-03T22:42:22.746Z,18.00
2022-12-03T22:44:49.449Z,18.00
2022-12-03T22:47:16.061Z,17.99
2022-12-03T22:49:42.654Z,17.97
2022-12-03T22:52:09.266Z,17.95
2022-12-03T22:54:35.844Z,17.95
2022-12-03T22:57:02.383Z,17.95
2022-12-03T22:59:28.967Z,17.94
2022-12-03T23:01:55.566Z,17.94
2022-12-03T23:04:22.183Z,17.94
2022-12-03T23:06:48.843Z,17.93
2022-12-03T23:09:15.443Z,17.93
2022-12-03T23:11:44.253Z,17.94
2022-12-03T23:14:11.583Z,17.92
2022-12-03T23:16:38.937Z,17.92
2022-12-03T23:19:05.594Z,17.92
2022-12-03T23:21:34.119Z,17.91
2022-12-03T23:24:02.443Z,17.91
2022-12-03T23:26:29.142Z,17.92
2022-12-03T23:28:56.296Z,17.95
2022-12-03T23:31:25.427Z,17.97
2022-12-03T23:33:52.635Z,18.00
2022-12-03T23:36:19.686Z,18.02
2022-12-03T23:38:46.349Z,18.04
2022-12-03T23:41:15.149Z,18.05
2022-12-03T23:43:42.262Z,18.06
2022-12-03T23:46:17.712Z,18.07
2022-12-03T23:48:45.440Z,18.09
2022-12-03T23:51:14.162Z,18.10
2022-12-03T23:53:41.161Z,18.10
2022-12-03T23:56:10.144Z,18.10
2022-12-03T23:58:36.698Z,18.10
